sensor_id;sensor_type;location;lat;lon;timestamp;P1;durP1;ratioP1;P2;durP2;ratioP2
46729;SDS011;32476;50.002;11.854;2023-05-14T00:00:57;8.07;;;6.13;;
46729;SDS011;32476;50.002;11.854;2023-05-14T00:03:23;7.37;;;6.00;;
46729;SDS011;32476;50.002;11.854;2023-05-14T00:05:51;13.67;;;7.13;;
46729;SDS011;32476;50.002;11.854;2023-05-14T00:08:19;8.77;;;6.47;;
46729;SDS011;32476;50.002;11.854;2023-05-14T00:10:45;9.60;;;7.27;;
46729;SDS011;32476;50.002;11.854;2023-05-14T00:13:12;10.23;;;7.40;;
46729;SDS011;32476;50.002;11.854;2023-05-14T00:15:38;9.90;;;7.50;;
46729;SDS011;32476;50.002;11.854;2023-05-14T00:18:04;10.40;;;7.07;;
46729;SDS011;32476;50.002;11.854;2023-05-14T00:20:32;9.10;;;6.67;;
46729;SDS011;32476;50.002;11.854;2023-05-14T00:22:58;12.27;;;6.80;;
46729;SDS011;32476;50.002;11.854;2023-05-14T00:25:24;10.03;;;7.47;;
46729;SDS011;32476;50.002;11.854;2023-05-14T00:27:51;12.57;;;7.50;;
46729;SDS011;32476;50.002;11.854;2023-05-14T00:30:17;9.47;;;7.23;;
46729;SDS011;32476;50.002;11.854;2023-05-14T00:32:43;9.07;;;7.20;;
46729;SDS011;32476;50.002;11.854;2023-05-14T00:35:10;8.80;;;6.77;;
46729;SDS011;32476;50.002;11.854;2023-05-14T00:37:36;12.10;;;6.93;;
46729;SDS011;32476;50.002;11.854;2023-05-14T00:40:02;10.83;;;7.57;;
46729;SDS011;32476;50.002;11.854;2023-05-14T00:42:30;8.40;;;6.93;;
46729;SDS011;32476;50.002;11.854;2023-05-14T00:44:55;10.43;;;7.47;;
46729;SDS011;32476;50.002;11.854;2023-05-14T00:47:21;12.13;;;7.57;;
46729;SDS011;32476;50.002;11.854;2023-05-14T00:49:49;12.00;;;7.27;;
46729;SDS011;32476;50.002;11.854;2023-05-14T00:52:15;13.60;;;7.30;;
46729;SDS011;32476;50.002;11.854;2023-05-14T00:54:41;13.03;;;6.90;;
46729;SDS011;32476;50.002;11.854;2023-05-14T00:57:08;8.83;;;7.43;;
46729;SDS011;32476;50.002;11.854;2023-05-14T00:59:34;9.97;;;7.23;;
46729;SDS011;32476;50.002;11.854;2023-05-14T01:02:00;12.20;;;7.27;;
46729;SDS011;32476;50.002;11.854;2023-05-14T01:04:27;11.63;;;7.20;;
46729;SDS011;32476;50.002;11.854;2023-05-14T01:09:50;11.10;;;7.53;;
46729;SDS011;32476;50.002;11.854;2023-05-14T01:12:37;8.77;;;7.07;;
46729;SDS011;32476;50.002;11.854;2023-05-14T01:15:29;12.60;;;8.37;;
46729;SDS011;32476;50.002;11.854;2023-05-14T01:18:16;10.63;;;8.30;;
46729;SDS011;32476;50.002;11.854;2023-05-14T01:20:45;10.17;;;7.77;;
46729;SDS011;32476;50.002;11.854;2023-05-14T01:23:15;11.27;;;8.00;;
46729;SDS011;32476;50.002;11.854;2023-05-14T01:25:40;9.57;;;7.17;;
46729;SDS011;32476;50.002;11.854;2023-05-14T01:28:16;9.93;;;7.70;;
46729;SDS011;32476;50.002;11.854;2023-05-14T01:33:15;12.10;;;7.67;;
46729;SDS011;32476;50.002;11.854;2023-05-14T01:35:42;10.63;;;8.00;;
46729;SDS011;32476;50.002;11.854;2023-05-14T01:38:10;10.73;;;7.23;;
46729;SDS011;32476;50.002;11.854;2023-05-14T01:40:39;10.03;;;7.43;;
46729;SDS011;32476;50.002;11.854;2023-05-14T01:43:06;11.17;;;8.47;;
46729;SDS011;32476;50.002;11.854;2023-05-14T01:45:33;11.53;;;7.83;;
46729;SDS011;32476;50.002;11.854;2023-05-14T01:48:03;11.87;;;7.73;;
46729;SDS011;32476;50.002;11.854;2023-05-14T01:50:29;12.63;;;8.87;;
46729;SDS011;32476;50.002;11.854;2023-05-14T01:52:55;12.43;;;8.07;;
46729;SDS011;32476;50.002;11.854;2023-05-14T01:55:23;12.67;;;8.37;;
46729;SDS011;32476;50.002;11.854;2023-05-14T01:57:49;12.83;;;7.43;;
46729;SDS011;32476;50.002;11.854;2023-05-14T02:00:15;9.63;;;7.10;;
46729;SDS011;32476;50.002;11.854;2023-05-14T02:02:43;10.80;;;7.70;;
46729;SDS011;32476;50.002;11.854;2023-05-14T02:05:09;10.63;;;7.97;;
46729;SDS011;32476;50.002;11.854;2023-05-14T02:07:36;9.87;;;7.30;;
46729;SDS011;32476;50.002;11.854;2023-05-14T02:10:03;12.23;;;8.07;;
46729;SDS011;32476;50.002;11.854;2023-05-14T02:12:29;12.70;;;7.70;;
46729;SDS011;32476;50.002;11.854;2023-05-14T02:14:55;12.40;;;8.33;;
46729;SDS011;32476;50.002;11.854;2023-05-14T02:17:23;10.80;;;8.17;;
46729;SDS011;32476;50.002;11.854;2023-05-14T02:19:50;12.37;;;8.43;;
46729;SDS011;32476;50.002;11.854;2023-05-14T02:22:15;14.70;;;10.50;;
46729;SDS011;32476;50.002;11.854;2023-05-14T02:24:43;16.20;;;10.43;;
46729;SDS011;32476;50.002;11.854;2023-05-14T02:27:09;12.87;;;8.53;;
46729;SDS011;32476;50.002;11.854;2023-05-14T02:29:36;10.60;;;8.30;;
46729;SDS011;32476;50.002;11.854;2023-05-14T02:32:04;12.50;;;9.07;;
46729;SDS011;32476;50.002;11.854;2023-05-14T02:34:30;13.47;;;8.67;;
46729;SDS011;32476;50.002;11.854;2023-05-14T02:36:58;12.13;;;9.20;;
46729;SDS011;32476;50.002;11.854;2023-05-14T02:39:26;12.17;;;9.07;;
46729;SDS011;32476;50.002;11.854;2023-05-14T02:41:52;11.57;;;8.67;;
46729;SDS011;32476;50.002;11.854;2023-05-14T02:44:17;12.37;;;8.43;;
46729;SDS011;32476;50.002;11.854;2023-05-14T02:46:45;12.27;;;9.13;;
46729;SDS011;32476;50.002;11.854;2023-05-14T02:49:11;15.50;;;9.50;;
46729;SDS011;32476;50.002;11.854;2023-05-14T02:51:37;13.67;;;8.43;;
46729;SDS011;32476;50.002;11.854;2023-05-14T02:54:04;11.30;;;8.60;;
46729;SDS011;32476;50.002;11.854;2023-05-14T02:56:30;13.40;;;8.57;;
46729;SDS011;32476;50.002;11.854;2023-05-14T02:58:56;14.53;;;9.93;;
46729;SDS011;32476;50.002;11.854;2023-05-14T03:01:23;12.03;;;8.53;;
46729;SDS011;32476;50.002;11.854;2023-05-14T03:03:49;11.00;;;9.07;;
46729;SDS011;32476;50.002;11.854;2023-05-14T03:10:00;12.10;;;8.43;;
46729;SDS011;32476;50.002;11.854;2023-05-14T03:12:26;13.50;;;9.63;;
46729;SDS011;32476;50.002;11.854;2023-05-14T03:14:52;11.77;;;8.73;;
46729;SDS011;32476;50.002;11.854;2023-05-14T03:17:19;15.17;;;9.87;;
46729;SDS011;32476;50.002;11.854;2023-05-14T03:19:45;12.53;;;9.00;;
46729;SDS011;32476;50.002;11.854;2023-05-14T03:22:11;14.17;;;9.43;;
46729;SDS011;32476;50.002;11.854;2023-05-14T03:24:38;12.40;;;9.53;;
46729;SDS011;32476;50.002;11.854;2023-05-14T03:27:04;13.97;;;9.23;;
46729;SDS011;32476;50.002;11.854;2023-05-14T03:29:30;14.33;;;9.63;;
46729;SDS011;32476;50.002;11.854;2023-05-14T03:31:58;13.70;;;9.00;;
46729;SDS011;32476;50.002;11.854;2023-05-14T03:34:24;13.63;;;8.83;;
46729;SDS011;32476;50.002;11.854;2023-05-14T03:36:49;13.60;;;9.37;;
46729;SDS011;32476;50.002;11.854;2023-05-14T03:39:17;11.63;;;9.37;;
46729;SDS011;32476;50.002;11.854;2023-05-14T03:41:46;14.77;;;9.70;;
46729;SDS011;32476;50.002;11.854;2023-05-14T03:44:12;13.60;;;9.53;;
46729;SDS011;32476;50.002;11.854;2023-05-14T03:46:39;11.73;;;8.93;;
46729;SDS011;32476;50.002;11.854;2023-05-14T03:49:05;11.70;;;8.50;;
46729;SDS011;32476;50.002;11.854;2023-05-14T03:51:32;11.37;;;8.10;;
46729;SDS011;32476;50.002;11.854;2023-05-14T03:53:59;13.33;;;9.30;;
46729;SDS011;32476;50.002;11.854;2023-05-14T03:56:25;11.00;;;8.73;;
46729;SDS011;32476;50.002;11.854;2023-05-14T03:58:51;14.67;;;8.70;;
46729;SDS011;32476;50.002;11.854;2023-05-14T04:01:19;11.90;;;8.40;;
46729;SDS011;32476;50.002;11.854;2023-05-14T04:03:45;13.07;;;9.10;;
46729;SDS011;32476;50.002;11.854;2023-05-14T04:06:10;11.23;;;8.53;;
46729;SDS011;32476;50.002;11.854;2023-05-14T04:08:38;11.97;;;9.00;;
46729;SDS011;32476;50.002;11.854;2023-05-14T04:11:03;11.33;;;8.03;;
46729;SDS011;32476;50.002;11.854;2023-05-14T04:13:29;11.03;;;8.00;;
46729;SDS011;32476;50.002;11.854;2023-05-14T04:15:56;11.30;;;8.77;;
46729;SDS011;32476;50.002;11.854;2023-05-14T04:18:22;12.83;;;9.33;;
46729;SDS011;32476;50.002;11.854;2023-05-14T04:20:48;11.97;;;8.70;;
46729;SDS011;32476;50.002;11.854;2023-05-14T04:23:15;11.63;;;9.00;;
46729;SDS011;32476;50.002;11.854;2023-05-14T04:25:41;13.00;;;8.70;;
46729;SDS011;32476;50.002;11.854;2023-05-14T04:28:07;12.63;;;9.00;;
46729;SDS011;32476;50.002;11.854;2023-05-14T04:30:34;12.70;;;8.23;;
46729;SDS011;32476;50.002;11.854;2023-05-14T04:33:00;12.03;;;8.77;;
46729;SDS011;32476;50.002;11.854;2023-05-14T04:35:26;12.23;;;9.20;;
46729;SDS011;32476;50.002;11.854;2023-05-14T04:37:54;13.53;;;8.80;;
46729;SDS011;32476;50.002;11.854;2023-05-14T04:40:20;13.20;;;9.47;;
46729;SDS011;32476;50.002;11.854;2023-05-14T04:42:46;13.03;;;9.37;;
46729;SDS011;32476;50.002;11.854;2023-05-14T04:45:14;12.30;;;8.97;;
46729;SDS011;32476;50.002;11.854;2023-05-14T04:47:41;12.43;;;8.93;;
46729;SDS011;32476;50.002;11.854;2023-05-14T04:50:08;13.47;;;9.57;;
46729;SDS011;32476;50.002;11.854;2023-05-14T04:52:37;13.27;;;9.40;;
46729;SDS011;32476;50.002;11.854;2023-05-14T04:55:03;11.67;;;8.90;;
46729;SDS011;32476;50.002;11.854;2023-05-14T04:57:29;11.90;;;8.67;;
46729;SDS011;32476;50.002;11.854;2023-05-14T04:59:56;13.63;;;8.60;;
46729;SDS011;32476;50.002;11.854;2023-05-14T05:02:22;13.93;;;8.63;;
46729;SDS011;32476;50.002;11.854;2023-05-14T05:04:48;12.13;;;9.17;;
46729;SDS011;32476;50.002;11.854;2023-05-14T05:07:15;15.47;;;9.20;;
46729;SDS011;32476;50.002;11.854;2023-05-14T05:09:41;13.47;;;8.30;;
46729;SDS011;32476;50.002;11.854;2023-05-14T05:12:08;12.20;;;9.00;;
46729;SDS011;32476;50.002;11.854;2023-05-14T05:14:35;14.50;;;9.77;;
46729;SDS011;32476;50.002;11.854;2023-05-14T05:17:01;12.13;;;8.73;;
46729;SDS011;32476;50.002;11.854;2023-05-14T05:19:27;12.57;;;9.27;;
46729;SDS011;32476;50.002;11.854;2023-05-14T05:21:54;13.87;;;9.50;;
46729;SDS011;32476;50.002;11.854;2023-05-14T05:24:20;12.90;;;9.20;;
46729;SDS011;32476;50.002;11.854;2023-05-14T05:26:46;11.80;;;9.30;;
46729;SDS011;32476;50.002;11.854;2023-05-14T05:29:13;11.63;;;8.73;;
46729;SDS011;32476;50.002;11.854;2023-05-14T05:31:39;11.83;;;8.53;;
46729;SDS011;32476;50.002;11.854;2023-05-14T05:34:05;11.97;;;8.83;;
46729;SDS011;32476;50.002;11.854;2023-05-14T05:36:32;14.27;;;9.60;;
46729;SDS011;32476;50.002;11.854;2023-05-14T05:38:58;12.83;;;9.23;;
46729;SDS011;32476;50.002;11.854;2023-05-14T05:41:24;12.13;;;9.13;;
46729;SDS011;32476;50.002;11.854;2023-05-14T05:43:52;11.03;;;8.77;;
46729;SDS011;32476;50.002;11.854;2023-05-14T05:46:18;11.70;;;8.73;;
46729;SDS011;32476;50.002;11.854;2023-05-14T05:48:43;12.80;;;8.63;;
46729;SDS011;32476;50.002;11.854;2023-05-14T05:51:11;13.50;;;10.00;;
46729;SDS011;32476;50.002;11.854;2023-05-14T05:53:37;14.40;;;9.30;;
46729;SDS011;32476;50.002;11.854;2023-05-14T05:56:02;14.57;;;9.27;;
46729;SDS011;32476;50.002;11.854;2023-05-14T05:58:30;15.30;;;9.10;;
46729;SDS011;32476;50.002;11.854;2023-05-14T06:00:56;13.17;;;9.57;;
46729;SDS011;32476;50.002;11.854;2023-05-14T06:03:22;13.10;;;9.40;;
46729;SDS011;32476;50.002;11.854;2023-05-14T06:05:50;12.77;;;9.13;;
46729;SDS011;32476;50.002;11.854;2023-05-14T06:08:17;10.67;;;8.10;;
46729;SDS011;32476;50.002;11.854;2023-05-14T06:10:43;13.27;;;8.70;;
46729;SDS011;32476;50.002;11.854;2023-05-14T06:13:12;13.53;;;9.07;;
46729;SDS011;32476;50.002;11.854;2023-05-14T06:15:37;16.47;;;10.07;;
46729;SDS011;32476;50.002;11.854;2023-05-14T06:18:03;13.50;;;9.60;;
46729;SDS011;32476;50.002;11.854;2023-05-14T06:20:30;16.57;;;10.07;;
46729;SDS011;32476;50.002;11.854;2023-05-14T06:22:57;13.33;;;9.33;;
46729;SDS011;32476;50.002;11.854;2023-05-14T06:25:22;13.63;;;9.33;;
46729;SDS011;32476;50.002;11.854;2023-05-14T06:27:50;14.50;;;9.50;;
46729;SDS011;32476;50.002;11.854;2023-05-14T06:30:15;13.17;;;9.23;;
46729;SDS011;32476;50.002;11.854;2023-05-14T06:32:41;13.83;;;8.87;;
46729;SDS011;32476;50.002;11.854;2023-05-14T06:35:09;19.27;;;9.37;;
46729;SDS011;32476;50.002;11.854;2023-05-14T06:37:35;14.60;;;9.83;;
46729;SDS011;32476;50.002;11.854;2023-05-14T06:40:01;13.77;;;9.67;;
46729;SDS011;32476;50.002;11.854;2023-05-14T06:42:29;13.47;;;9.93;;
46729;SDS011;32476;50.002;11.854;2023-05-14T06:44:55;14.97;;;9.43;;
46729;SDS011;32476;50.002;11.854;2023-05-14T06:47:20;12.10;;;8.47;;
46729;SDS011;32476;50.002;11.854;2023-05-14T06:49:48;16.90;;;9.57;;
46729;SDS011;32476;50.002;11.854;2023-05-14T06:52:14;11.70;;;8.67;;
46729;SDS011;32476;50.002;11.854;2023-05-14T06:54:39;13.30;;;9.40;;
46729;SDS011;32476;50.002;11.854;2023-05-14T06:57:07;12.40;;;8.63;;
46729;SDS011;32476;50.002;11.854;2023-05-14T06:59:33;11.27;;;8.90;;
46729;SDS011;32476;50.002;11.854;2023-05-14T07:01:58;15.27;;;9.80;;
46729;SDS011;32476;50.002;11.854;2023-05-14T07:04:26;14.87;;;9.03;;
46729;SDS011;32476;50.002;11.854;2023-05-14T07:06:52;12.63;;;8.53;;
46729;SDS011;32476;50.002;11.854;2023-05-14T07:09:18;12.37;;;8.43;;
46729;SDS011;32476;50.002;11.854;2023-05-14T07:11:45;12.73;;;8.63;;
46729;SDS011;32476;50.002;11.854;2023-05-14T07:14:11;12.47;;;8.60;;
46729;SDS011;32476;50.002;11.854;2023-05-14T07:16:37;13.50;;;8.77;;
46729;SDS011;32476;50.002;11.854;2023-05-14T07:19:04;11.03;;;7.90;;
46729;SDS011;32476;50.002;11.854;2023-05-14T07:21:30;11.43;;;8.20;;
46729;SDS011;32476;50.002;11.854;2023-05-14T07:23:57;11.63;;;8.47;;
46729;SDS011;32476;50.002;11.854;2023-05-14T07:26:25;10.53;;;8.37;;
46729;SDS011;32476;50.002;11.854;2023-05-14T07:28:50;14.63;;;9.00;;
46729;SDS011;32476;50.002;11.854;2023-05-14T07:31:16;13.80;;;8.53;;
46729;SDS011;32476;50.002;11.854;2023-05-14T07:33:44;10.70;;;8.40;;
46729;SDS011;32476;50.002;11.854;2023-05-14T07:36:10;11.10;;;8.23;;
46729;SDS011;32476;50.002;11.854;2023-05-14T07:38:35;12.80;;;8.90;;
46729;SDS011;32476;50.002;11.854;2023-05-14T07:41:03;11.40;;;7.97;;
46729;SDS011;32476;50.002;11.854;2023-05-14T07:43:29;12.33;;;8.50;;
46729;SDS011;32476;50.002;11.854;2023-05-14T07:45:55;11.80;;;8.77;;
46729;SDS011;32476;50.002;11.854;2023-05-14T07:48:22;10.00;;;7.37;;
46729;SDS011;32476;50.002;11.854;2023-05-14T07:50:48;12.10;;;8.10;;
46729;SDS011;32476;50.002;11.854;2023-05-14T07:53:14;10.80;;;8.07;;
46729;SDS011;32476;50.002;11.854;2023-05-14T07:55:41;11.07;;;8.40;;
46729;SDS011;32476;50.002;11.854;2023-05-14T07:58:08;10.80;;;7.97;;
46729;SDS011;32476;50.002;11.854;2023-05-14T08:00:34;11.50;;;8.20;;
46729;SDS011;32476;50.002;11.854;2023-05-14T08:03:02;13.23;;;8.10;;
46729;SDS011;32476;50.002;11.854;2023-05-14T08:05:38;12.37;;;8.60;;
46729;SDS011;32476;50.002;11.854;2023-05-14T08:08:05;13.00;;;7.97;;
46729;SDS011;32476;50.002;11.854;2023-05-14T08:10:31;12.37;;;8.33;;
46729;SDS011;32476;50.002;11.854;2023-05-14T08:12:57;12.20;;;8.40;;
46729;SDS011;32476;50.002;11.854;2023-05-14T08:15:24;13.30;;;8.53;;
46729;SDS011;32476;50.002;11.854;2023-05-14T08:17:50;11.40;;;7.73;;
46729;SDS011;32476;50.002;11.854;2023-05-14T08:20:16;12.93;;;7.67;;
46729;SDS011;32476;50.002;11.854;2023-05-14T08:22:43;10.60;;;7.83;;
46729;SDS011;32476;50.002;11.854;2023-05-14T08:25:09;11.50;;;8.30;;
46729;SDS011;32476;50.002;11.854;2023-05-14T08:27:35;11.00;;;8.00;;
46729;SDS011;32476;50.002;11.854;2023-05-14T08:30:03;9.70;;;7.53;;
46729;SDS011;32476;50.002;11.854;2023-05-14T08:32:29;12.20;;;7.93;;
46729;SDS011;32476;50.002;11.854;2023-05-14T08:34:55;10.57;;;7.40;;
46729;SDS011;32476;50.002;11.854;2023-05-14T08:37:22;10.50;;;6.77;;
46729;SDS011;32476;50.002;11.854;2023-05-14T08:39:48;12.17;;;7.13;;
46729;SDS011;32476;50.002;11.854;2023-05-14T08:42:14;9.27;;;7.07;;
46729;SDS011;32476;50.002;11.854;2023-05-14T08:44:52;11.00;;;7.43;;
46729;SDS011;32476;50.002;11.854;2023-05-14T08:47:22;8.83;;;6.47;;
46729;SDS011;32476;50.002;11.854;2023-05-14T08:52:46;11.77;;;7.07;;
46729;SDS011;32476;50.002;11.854;2023-05-14T08:55:14;7.87;;;6.30;;
46729;SDS011;32476;50.002;11.854;2023-05-14T08:57:40;11.33;;;6.50;;
46729;SDS011;32476;50.002;11.854;2023-05-14T09:00:06;7.70;;;5.80;;
46729;SDS011;32476;50.002;11.854;2023-05-14T09:02:40;10.00;;;7.00;;
46729;SDS011;32476;50.002;11.854;2023-05-14T09:05:06;8.87;;;6.40;;
46729;SDS011;32476;50.002;11.854;2023-05-14T09:07:33;9.23;;;6.77;;
46729;SDS011;32476;50.002;11.854;2023-05-14T09:10:01;8.57;;;6.57;;
46729;SDS011;32476;50.002;11.854;2023-05-14T09:12:28;8.47;;;6.30;;
46729;SDS011;32476;50.002;11.854;2023-05-14T09:14:54;8.60;;;6.90;;
46729;SDS011;32476;50.002;11.854;2023-05-14T09:17:21;9.00;;;5.90;;
46729;SDS011;32476;50.002;11.854;2023-05-14T09:19:50;9.40;;;6.57;;
46729;SDS011;32476;50.002;11.854;2023-05-14T09:22:17;8.57;;;5.50;;
46729;SDS011;32476;50.002;11.854;2023-05-14T09:24:45;6.40;;;5.07;;
46729;SDS011;32476;50.002;11.854;2023-05-14T09:27:28;8.90;;;6.67;;
46729;SDS011;32476;50.002;11.854;2023-05-14T09:30:03;10.30;;;7.27;;
46729;SDS011;32476;50.002;11.854;2023-05-14T09:32:39;8.87;;;5.90;;
46729;SDS011;32476;50.002;11.854;2023-05-14T09:35:10;8.20;;;5.40;;
46729;SDS011;32476;50.002;11.854;2023-05-14T09:37:47;10.10;;;5.37;;
46729;SDS011;32476;50.002;11.854;2023-05-14T09:40:16;25.97;;;14.10;;
46729;SDS011;32476;50.002;11.854;2023-05-14T09:42:43;6.80;;;5.17;;
46729;SDS011;32476;50.002;11.854;2023-05-14T09:45:10;5.70;;;4.77;;
46729;SDS011;32476;50.002;11.854;2023-05-14T09:47:38;8.30;;;5.73;;
46729;SDS011;32476;50.002;11.854;2023-05-14T09:50:04;9.97;;;5.50;;
46729;SDS011;32476;50.002;11.854;2023-05-14T09:52:30;8.00;;;5.47;;
46729;SDS011;32476;50.002;11.854;2023-05-14T09:54:58;6.23;;;5.30;;
46729;SDS011;32476;50.002;11.854;2023-05-14T09:57:25;6.50;;;4.73;;
46729;SDS011;32476;50.002;11.854;2023-05-14T09:59:52;8.80;;;5.30;;
46729;SDS011;32476;50.002;11.854;2023-05-14T10:02:27;8.17;;;5.43;;
46729;SDS011;32476;50.002;11.854;2023-05-14T10:05:01;11.70;;;5.47;;
46729;SDS011;32476;50.002;11.854;2023-05-14T10:07:41;7.03;;;5.50;;
46729;SDS011;32476;50.002;11.854;2023-05-14T10:10:12;6.47;;;5.27;;
46729;SDS011;32476;50.002;11.854;2023-05-14T10:12:42;8.60;;;5.87;;
46729;SDS011;32476;50.002;11.854;2023-05-14T10:15:16;6.77;;;5.70;;
46729;SDS011;32476;50.002;11.854;2023-05-14T10:18:00;7.97;;;6.07;;
46729;SDS011;32476;50.002;11.854;2023-05-14T10:20:32;6.77;;;5.33;;
46729;SDS011;32476;50.002;11.854;2023-05-14T10:23:00;8.53;;;5.70;;
46729;SDS011;32476;50.002;11.854;2023-05-14T10:25:26;7.07;;;5.60;;
46729;SDS011;32476;50.002;11.854;2023-05-14T10:27:52;8.07;;;5.77;;
46729;SDS011;32476;50.002;11.854;2023-05-14T10:30:20;6.03;;;5.17;;
46729;SDS011;32476;50.002;11.854;2023-05-14T10:33:04;5.10;;;4.47;;
46729;SDS011;32476;50.002;11.854;2023-05-14T10:35:49;5.87;;;4.90;;
46729;SDS011;32476;50.002;11.854;2023-05-14T10:38:29;6.80;;;4.60;;
46729;SDS011;32476;50.002;11.854;2023-05-14T10:41:04;6.30;;;4.80;;
46729;SDS011;32476;50.002;11.854;2023-05-14T10:43:38;6.77;;;4.50;;
46729;SDS011;32476;50.002;11.854;2023-05-14T10:46:07;5.07;;;4.10;;
46729;SDS011;32476;50.002;11.854;2023-05-14T10:48:35;5.47;;;3.90;;
46729;SDS011;32476;50.002;11.854;2023-05-14T10:51:03;4.67;;;4.03;;
46729;SDS011;32476;50.002;11.854;2023-05-14T10:53:34;5.77;;;4.70;;
46729;SDS011;32476;50.002;11.854;2023-05-14T10:56:01;6.77;;;4.73;;
46729;SDS011;32476;50.002;11.854;2023-05-14T10:58:33;6.10;;;4.80;;
46729;SDS011;32476;50.002;11.854;2023-05-14T11:01:02;6.93;;;5.23;;
46729;SDS011;32476;50.002;11.854;2023-05-14T11:03:30;6.00;;;4.43;;
46729;SDS011;32476;50.002;11.854;2023-05-14T11:05:56;7.30;;;4.90;;
46729;SDS011;32476;50.002;11.854;2023-05-14T11:08:29;6.33;;;5.03;;
46729;SDS011;32476;50.002;11.854;2023-05-14T11:10:56;5.87;;;4.83;;
46729;SDS011;32476;50.002;11.854;2023-05-14T11:13:22;5.93;;;4.53;;
46729;SDS011;32476;50.002;11.854;2023-05-14T11:15:52;7.00;;;4.23;;
46729;SDS011;32476;50.002;11.854;2023-05-14T11:18:27;6.27;;;5.23;;
46729;SDS011;32476;50.002;11.854;2023-05-14T11:20:58;5.93;;;4.03;;
46729;SDS011;32476;50.002;11.854;2023-05-14T11:23:25;4.57;;;4.10;;
46729;SDS011;32476;50.002;11.854;2023-05-14T11:25:52;5.70;;;4.20;;
46729;SDS011;32476;50.002;11.854;2023-05-14T11:28:21;9.57;;;4.50;;
46729;SDS011;32476;50.002;11.854;2023-05-14T11:30:48;8.37;;;5.03;;
46729;SDS011;32476;50.002;11.854;2023-05-14T11:33:15;5.33;;;4.07;;
46729;SDS011;32476;50.002;11.854;2023-05-14T11:35:43;6.43;;;4.03;;
46729;SDS011;32476;50.002;11.854;2023-05-14T11:38:14;7.17;;;4.60;;
46729;SDS011;32476;50.002;11.854;2023-05-14T11:40:40;5.87;;;4.70;;
46729;SDS011;32476;50.002;11.854;2023-05-14T11:43:08;5.93;;;4.67;;
46729;SDS011;32476;50.002;11.854;2023-05-14T11:45:35;6.13;;;4.37;;
46729;SDS011;32476;50.002;11.854;2023-05-14T11:48:10;6.77;;;4.57;;
46729;SDS011;32476;50.002;11.854;2023-05-14T11:50:39;7.00;;;5.30;;
46729;SDS011;32476;50.002;11.854;2023-05-14T11:53:08;7.90;;;5.70;;
46729;SDS011;32476;50.002;11.854;2023-05-14T11:55:35;7.40;;;5.37;;
46729;SDS011;32476;50.002;11.854;2023-05-14T11:58:05;5.40;;;4.37;;
46729;SDS011;32476;50.002;11.854;2023-05-14T12:00:32;7.63;;;5.50;;
46729;SDS011;32476;50.002;11.854;2023-05-14T12:03:00;7.40;;;5.27;;
46729;SDS011;32476;50.002;11.854;2023-05-14T12:05:29;8.53;;;5.90;;
46729;SDS011;32476;50.002;11.854;2023-05-14T12:07:54;6.07;;;5.20;;
46729;SDS011;32476;50.002;11.854;2023-05-14T12:10:21;7.20;;;4.70;;
46729;SDS011;32476;50.002;11.854;2023-05-14T12:12:50;6.87;;;5.07;;
46729;SDS011;32476;50.002;11.854;2023-05-14T12:15:15;8.37;;;5.40;;
46729;SDS011;32476;50.002;11.854;2023-05-14T12:17:42;7.73;;;5.23;;
46729;SDS011;32476;50.002;11.854;2023-05-14T12:20:16;7.13;;;5.00;;
46729;SDS011;32476;50.002;11.854;2023-05-14T12:22:42;6.63;;;4.73;;
46729;SDS011;32476;50.002;11.854;2023-05-14T12:25:11;6.73;;;4.90;;
46729;SDS011;32476;50.002;11.854;2023-05-14T12:27:39;7.70;;;4.87;;
46729;SDS011;32476;50.002;11.854;2023-05-14T12:30:05;7.60;;;5.00;;
46729;SDS011;32476;50.002;11.854;2023-05-14T12:32:33;6.83;;;4.83;;
46729;SDS011;32476;50.002;11.854;2023-05-14T12:35:02;6.50;;;5.03;;
46729;SDS011;32476;50.002;11.854;2023-05-14T12:37:28;5.73;;;4.40;;
46729;SDS011;32476;50.002;11.854;2023-05-14T12:39:54;7.00;;;5.17;;
46729;SDS011;32476;50.002;11.854;2023-05-14T12:42:21;6.53;;;4.57;;
46729;SDS011;32476;50.002;11.854;2023-05-14T12:44:47;6.53;;;4.50;;
46729;SDS011;32476;50.002;11.854;2023-05-14T12:47:13;5.40;;;4.37;;
46729;SDS011;32476;50.002;11.854;2023-05-14T12:49:40;6.77;;;5.40;;
46729;SDS011;32476;50.002;11.854;2023-05-14T12:52:06;6.33;;;4.23;;
46729;SDS011;32476;50.002;11.854;2023-05-14T12:54:32;6.60;;;4.50;;
46729;SDS011;32476;50.002;11.854;2023-05-14T12:56:59;5.83;;;4.93;;
46729;SDS011;32476;50.002;11.854;2023-05-14T12:59:25;6.83;;;4.70;;
46729;SDS011;32476;50.002;11.854;2023-05-14T13:01:51;11.43;;;5.67;;
46729;SDS011;32476;50.002;11.854;2023-05-14T13:04:18;7.50;;;5.93;;
46729;SDS011;32476;50.002;11.854;2023-05-14T13:06:44;6.37;;;5.17;;
46729;SDS011;32476;50.002;11.854;2023-05-14T13:09:10;5.80;;;4.47;;
46729;SDS011;32476;50.002;11.854;2023-05-14T13:11:37;7.30;;;4.63;;
46729;SDS011;32476;50.002;11.854;2023-05-14T13:14:03;4.90;;;4.00;;
46729;SDS011;32476;50.002;11.854;2023-05-14T13:16:28;4.23;;;3.40;;
46729;SDS011;32476;50.002;11.854;2023-05-14T13:18:58;5.83;;;4.00;;
46729;SDS011;32476;50.002;11.854;2023-05-14T13:21:24;7.40;;;4.50;;
46729;SDS011;32476;50.002;11.854;2023-05-14T13:23:50;4.20;;;3.67;;
46729;SDS011;32476;50.002;11.854;2023-05-14T13:26:17;5.57;;;4.20;;
46729;SDS011;32476;50.002;11.854;2023-05-14T13:28:43;4.73;;;3.73;;
46729;SDS011;32476;50.002;11.854;2023-05-14T13:31:10;4.90;;;3.83;;
46729;SDS011;32476;50.002;11.854;2023-05-14T13:33:40;5.27;;;4.07;;
46729;SDS011;32476;50.002;11.854;2023-05-14T13:36:07;5.27;;;3.40;;
46729;SDS011;32476;50.002;11.854;2023-05-14T13:38:34;5.60;;;4.10;;
46729;SDS011;32476;50.002;11.854;2023-05-14T13:41:01;6.93;;;3.70;;
46729;SDS011;32476;50.002;11.854;2023-05-14T13:43:28;5.60;;;4.13;;
46729;SDS011;32476;50.002;11.854;2023-05-14T13:45:55;5.57;;;4.50;;
46729;SDS011;32476;50.002;11.854;2023-05-14T13:48:23;7.43;;;4.03;;
46729;SDS011;32476;50.002;11.854;2023-05-14T13:50:49;5.13;;;4.43;;
46729;SDS011;32476;50.002;11.854;2023-05-14T13:53:16;4.53;;;4.13;;
46729;SDS011;32476;50.002;11.854;2023-05-14T13:58:41;5.57;;;4.73;;
46729;SDS011;32476;50.002;11.854;2023-05-14T14:01:09;7.37;;;4.63;;
46729;SDS011;32476;50.002;11.854;2023-05-14T14:03:34;8.97;;;5.43;;
46729;SDS011;32476;50.002;11.854;2023-05-14T14:06:00;6.27;;;4.80;;
46729;SDS011;32476;50.002;11.854;2023-05-14T14:08:28;6.40;;;4.80;;
46729;SDS011;32476;50.002;11.854;2023-05-14T14:10:55;6.30;;;4.37;;
46729;SDS011;32476;50.002;11.854;2023-05-14T14:13:20;6.23;;;4.00;;
46729;SDS011;32476;50.002;11.854;2023-05-14T14:15:48;7.40;;;4.23;;
46729;SDS011;32476;50.002;11.854;2023-05-14T14:18:14;5.60;;;4.83;;
46729;SDS011;32476;50.002;11.854;2023-05-14T14:20:40;8.83;;;5.37;;
46729;SDS011;32476;50.002;11.854;2023-05-14T14:23:07;5.87;;;4.80;;
46729;SDS011;32476;50.002;11.854;2023-05-14T14:25:33;5.33;;;4.43;;
46729;SDS011;32476;50.002;11.854;2023-05-14T14:27:58;5.43;;;4.77;;
46729;SDS011;32476;50.002;11.854;2023-05-14T14:30:26;6.47;;;4.60;;
46729;SDS011;32476;50.002;11.854;2023-05-14T14:32:52;7.67;;;5.10;;
46729;SDS011;32476;50.002;11.854;2023-05-14T14:35:18;6.10;;;5.07;;
46729;SDS011;32476;50.002;11.854;2023-05-14T14:37:46;6.53;;;5.03;;
46729;SDS011;32476;50.002;11.854;2023-05-14T14:40:17;5.10;;;4.60;;
46729;SDS011;32476;50.002;11.854;2023-05-14T14:42:44;6.30;;;4.97;;